sensor_id;sensor_type;location;lat;lon;timestamp;P1;durP1;ratioP1;P2;durP2;ratioP2
21905;SDS011;11117;48.644;9.006;2022-09-01T00:02:20;62.87;;;34.27;;
21905;SDS011;11117;48.644;9.006;2022-09-01T00:04:45;64.07;;;35.10;;
21905;SDS011;11117;48.644;9.006;2022-09-01T00:07:11;60.37;;;34.07;;
21905;SDS011;11117;48.644;9.006;2022-09-01T00:09:38;63.83;;;35.57;;
21905;SDS011;11117;48.644;9.006;2022-09-01T00:12:05;65.30;;;34.83;;
21905;SDS011;11117;48.644;9.006;2022-09-01T00:14:33;60.27;;;33.20;;
21905;SDS011;11117;48.644;9.006;2022-09-01T00:17:02;62.97;;;33.30;;
21905;SDS011;11117;48.644;9.006;2022-09-01T00:19:30;60.53;;;32.93;;
21905;SDS011;11117;48.644;9.006;2022-09-01T00:21:56;164.77;;;36.17;;
21905;SDS011;11117;48.644;9.006;2022-09-01T00:24:23;520.73;;;38.67;;
21905;SDS011;11117;48.644;9.006;2022-09-01T00:26:49;307.67;;;40.80;;
21905;SDS011;11117;48.644;9.006;2022-09-01T00:29:14;401.73;;;40.10;;
21905;SDS011;11117;48.644;9.006;2022-09-01T00:31:40;157.90;;;37.40;;
21905;SDS011;11117;48.644;9.006;2022-09-01T00:34:06;235.73;;;39.20;;
21905;SDS011;11117;48.644;9.006;2022-09-01T00:36:35;165.67;;;38.10;;
21905;SDS011;11117;48.644;9.006;2022-09-01T00:39:02;70.63;;;35.20;;
21905;SDS011;11117;48.644;9.006;2022-09-01T00:41:29;156.30;;;34.80;;
21905;SDS011;11117;48.644;9.006;2022-09-01T00:43:59;136.23;;;37.60;;
21905;SDS011;11117;48.644;9.006;2022-09-01T00:46:28;287.87;;;38.23;;
21905;SDS011;11117;48.644;9.006;2022-09-01T00:48:59;383.50;;;38.43;;
21905;SDS011;11117;48.644;9.006;2022-09-01T00:51:37;510.53;;;40.50;;
21905;SDS011;11117;48.644;9.006;2022-09-01T00:54:08;287.63;;;37.77;;
21905;SDS011;11117;48.644;9.006;2022-09-01T00:56:45;147.00;;;35.23;;
21905;SDS011;11117;48.644;9.006;2022-09-01T00:59:12;243.83;;;42.30;;
21905;SDS011;11117;48.644;9.006;2022-09-01T01:01:40;382.87;;;40.70;;
21905;SDS011;11117;48.644;9.006;2022-09-01T01:04:06;435.23;;;43.63;;
21905;SDS011;11117;48.644;9.006;2022-09-01T01:06:34;435.13;;;45.17;;
21905;SDS011;11117;48.644;9.006;2022-09-01T01:08:59;283.37;;;40.47;;
21905;SDS011;11117;48.644;9.006;2022-09-01T01:11:27;239.37;;;42.00;;
21905;SDS011;11117;48.644;9.006;2022-09-01T01:14:00;208.57;;;42.40;;
21905;SDS011;11117;48.644;9.006;2022-09-01T01:16:28;393.33;;;41.17;;
21905;SDS011;11117;48.644;9.006;2022-09-01T01:18:54;463.40;;;45.30;;
21905;SDS011;11117;48.644;9.006;2022-09-01T01:21:21;266.60;;;38.17;;
21905;SDS011;11117;48.644;9.006;2022-09-01T01:23:53;218.00;;;40.97;;
21905;SDS011;11117;48.644;9.006;2022-09-01T01:26:25;200.53;;;41.90;;
21905;SDS011;11117;48.644;9.006;2022-09-01T01:28:51;230.00;;;40.67;;
21905;SDS011;11117;48.644;9.006;2022-09-01T01:31:17;309.27;;;42.47;;
21905;SDS011;11117;48.644;9.006;2022-09-01T01:33:50;264.77;;;45.00;;
21905;SDS011;11117;48.644;9.006;2022-09-01T01:36:22;144.23;;;46.30;;
21905;SDS011;11117;48.644;9.006;2022-09-01T01:38:49;128.53;;;48.97;;
21905;SDS011;11117;48.644;9.006;2022-09-01T01:41:15;113.50;;;47.73;;
21905;SDS011;11117;48.644;9.006;2022-09-01T01:43:42;107.97;;;47.07;;
21905;SDS011;11117;48.644;9.006;2022-09-01T01:46:09;102.47;;;46.13;;
21905;SDS011;11117;48.644;9.006;2022-09-01T01:48:37;103.10;;;44.60;;
21905;SDS011;11117;48.644;9.006;2022-09-01T01:51:05;97.13;;;44.87;;
21905;SDS011;11117;48.644;9.006;2022-09-01T01:53:31;106.13;;;45.53;;
21905;SDS011;11117;48.644;9.006;2022-09-01T01:55:57;104.90;;;46.30;;
21905;SDS011;11117;48.644;9.006;2022-09-01T01:58:23;99.23;;;44.23;;
21905;SDS011;11117;48.644;9.006;2022-09-01T02:00:51;89.77;;;42.97;;
21905;SDS011;11117;48.644;9.006;2022-09-01T02:03:18;94.97;;;41.60;;
21905;SDS011;11117;48.644;9.006;2022-09-01T02:05:46;84.33;;;40.73;;
21905;SDS011;11117;48.644;9.006;2022-09-01T02:08:15;92.73;;;39.43;;
21905;SDS011;11117;48.644;9.006;2022-09-01T02:10:44;87.67;;;41.03;;
21905;SDS011;11117;48.644;9.006;2022-09-01T02:13:12;79.73;;;37.57;;
21905;SDS011;11117;48.644;9.006;2022-09-01T02:15:40;74.27;;;35.97;;
21905;SDS011;11117;48.644;9.006;2022-09-01T02:18:07;76.07;;;35.03;;
21905;SDS011;11117;48.644;9.006;2022-09-01T02:20:33;75.60;;;36.17;;
21905;SDS011;11117;48.644;9.006;2022-09-01T02:22:59;69.67;;;33.70;;
21905;SDS011;11117;48.644;9.006;2022-09-01T02:25:25;79.40;;;34.67;;
21905;SDS011;11117;48.644;9.006;2022-09-01T02:27:50;67.50;;;33.87;;
21905;SDS011;11117;48.644;9.006;2022-09-01T02:30:16;62.93;;;31.40;;
21905;SDS011;11117;48.644;9.006;2022-09-01T02:32:41;64.07;;;32.60;;
21905;SDS011;11117;48.644;9.006;2022-09-01T02:35:07;58.87;;;31.77;;
21905;SDS011;11117;48.644;9.006;2022-09-01T02:37:33;53.53;;;30.00;;
21905;SDS011;11117;48.644;9.006;2022-09-01T02:39:59;70.40;;;32.53;;
21905;SDS011;11117;48.644;9.006;2022-09-01T02:42:24;116.03;;;36.30;;
21905;SDS011;11117;48.644;9.006;2022-09-01T02:44:50;85.77;;;33.90;;
21905;SDS011;11117;48.644;9.006;2022-09-01T02:47:19;122.83;;;32.00;;
21905;SDS011;11117;48.644;9.006;2022-09-01T02:49:45;284.87;;;39.23;;
21905;SDS011;11117;48.644;9.006;2022-09-01T02:52:11;223.07;;;36.47;;
21905;SDS011;11117;48.644;9.006;2022-09-01T02:54:37;447.00;;;42.00;;
21905;SDS011;11117;48.644;9.006;2022-09-01T02:57:02;275.00;;;36.87;;
21905;SDS011;11117;48.644;9.006;2022-09-01T02:59:28;336.00;;;41.17;;
21905;SDS011;11117;48.644;9.006;2022-09-01T03:01:54;122.60;;;37.77;;
21905;SDS011;11117;48.644;9.006;2022-09-01T03:04:20;127.27;;;37.27;;
21905;SDS011;11117;48.644;9.006;2022-09-01T03:06:46;201.67;;;42.73;;
21905;SDS011;11117;48.644;9.006;2022-09-01T03:09:13;73.23;;;36.00;;
21905;SDS011;11117;48.644;9.006;2022-09-01T03:11:43;83.73;;;36.97;;
21905;SDS011;11117;48.644;9.006;2022-09-01T03:14:11;76.90;;;36.80;;
21905;SDS011;11117;48.644;9.006;2022-09-01T03:16:37;84.70;;;37.53;;
21905;SDS011;11117;48.644;9.006;2022-09-01T03:19:04;73.67;;;35.00;;
21905;SDS011;11117;48.644;9.006;2022-09-01T03:21:30;83.07;;;37.93;;
21905;SDS011;11117;48.644;9.006;2022-09-01T03:23:56;64.60;;;33.67;;
21905;SDS011;11117;48.644;9.006;2022-09-01T03:26:22;87.33;;;36.23;;
21905;SDS011;11117;48.644;9.006;2022-09-01T03:28:49;68.67;;;36.23;;
21905;SDS011;11117;48.644;9.006;2022-09-01T03:31:16;69.63;;;34.53;;
21905;SDS011;11117;48.644;9.006;2022-09-01T03:33:42;65.43;;;34.50;;
21905;SDS011;11117;48.644;9.006;2022-09-01T03:36:08;78.27;;;35.43;;
21905;SDS011;11117;48.644;9.006;2022-09-01T03:38:33;68.10;;;33.00;;
21905;SDS011;11117;48.644;9.006;2022-09-01T03:41:01;62.17;;;31.93;;
21905;SDS011;11117;48.644;9.006;2022-09-01T03:43:29;68.63;;;35.27;;
21905;SDS011;11117;48.644;9.006;2022-09-01T03:45:57;47.20;;;29.90;;
21905;SDS011;11117;48.644;9.006;2022-09-01T03:48:23;72.47;;;34.13;;
21905;SDS011;11117;48.644;9.006;2022-09-01T03:50:49;56.37;;;32.07;;
21905;SDS011;11117;48.644;9.006;2022-09-01T03:53:16;65.27;;;33.37;;
21905;SDS011;11117;48.644;9.006;2022-09-01T03:55:45;90.27;;;38.70;;
21905;SDS011;11117;48.644;9.006;2022-09-01T03:58:12;94.93;;;39.90;;
21905;SDS011;11117;48.644;9.006;2022-09-01T04:00:40;98.70;;;40.47;;
21905;SDS011;11117;48.644;9.006;2022-09-01T04:03:09;81.63;;;39.13;;
21905;SDS011;11117;48.644;9.006;2022-09-01T04:05:36;74.43;;;36.80;;
21905;SDS011;11117;48.644;9.006;2022-09-01T04:08:04;69.67;;;36.17;;
21905;SDS011;11117;48.644;9.006;2022-09-01T04:10:32;62.40;;;33.33;;
21905;SDS011;11117;48.644;9.006;2022-09-01T04:12:59;87.83;;;38.83;;
21905;SDS011;11117;48.644;9.006;2022-09-01T04:15:26;86.53;;;38.37;;
21905;SDS011;11117;48.644;9.006;2022-09-01T04:17:52;90.27;;;39.97;;
21905;SDS011;11117;48.644;9.006;2022-09-01T04:20:19;104.13;;;39.00;;
21905;SDS011;11117;48.644;9.006;2022-09-01T04:22:45;123.23;;;37.90;;
21905;SDS011;11117;48.644;9.006;2022-09-01T04:25:11;139.90;;;45.63;;
21905;SDS011;11117;48.644;9.006;2022-09-01T04:27:37;93.97;;;40.10;;
21905;SDS011;11117;48.644;9.006;2022-09-01T04:30:06;113.17;;;44.10;;
21905;SDS011;11117;48.644;9.006;2022-09-01T04:32:34;85.63;;;40.30;;
21905;SDS011;11117;48.644;9.006;2022-09-01T04:34:59;52.60;;;31.00;;
21905;SDS011;11117;48.644;9.006;2022-09-01T04:37:25;95.70;;;30.87;;
21905;SDS011;11117;48.644;9.006;2022-09-01T04:39:51;157.17;;;34.23;;
21905;SDS011;11117;48.644;9.006;2022-09-01T04:42:19;108.03;;;36.23;;
21905;SDS011;11117;48.644;9.006;2022-09-01T04:44:45;69.77;;;36.47;;
21905;SDS011;11117;48.644;9.006;2022-09-01T04:47:11;66.03;;;36.80;;
21905;SDS011;11117;48.644;9.006;2022-09-01T04:49:36;57.30;;;33.37;;
21905;SDS011;11117;48.644;9.006;2022-09-01T04:52:05;44.63;;;28.50;;
21905;SDS011;11117;48.644;9.006;2022-09-01T04:54:31;46.07;;;29.67;;
21905;SDS011;11117;48.644;9.006;2022-09-01T04:56:56;71.80;;;26.87;;
21905;SDS011;11117;48.644;9.006;2022-09-01T04:59:23;96.77;;;28.03;;
21905;SDS011;11117;48.644;9.006;2022-09-01T05:01:49;41.27;;;26.97;;
21905;SDS011;11117;48.644;9.006;2022-09-01T05:04:16;138.03;;;26.67;;
21905;SDS011;11117;48.644;9.006;2022-09-01T05:06:45;50.10;;;26.07;;
21905;SDS011;11117;48.644;9.006;2022-09-01T05:09:16;54.57;;;27.13;;
21905;SDS011;11117;48.644;9.006;2022-09-01T05:11:42;247.53;;;28.43;;
21905;SDS011;11117;48.644;9.006;2022-09-01T05:14:08;251.87;;;32.20;;
21905;SDS011;11117;48.644;9.006;2022-09-01T05:16:37;429.67;;;35.23;;
21905;SDS011;11117;48.644;9.006;2022-09-01T05:19:03;89.30;;;28.60;;
21905;SDS011;11117;48.644;9.006;2022-09-01T05:21:28;384.50;;;41.37;;
21905;SDS011;11117;48.644;9.006;2022-09-01T05:23:56;218.17;;;32.83;;
21905;SDS011;11117;48.644;9.006;2022-09-01T05:26:24;249.43;;;35.60;;
21905;SDS011;11117;48.644;9.006;2022-09-01T05:28:52;77.20;;;30.73;;
21905;SDS011;11117;48.644;9.006;2022-09-01T05:31:20;50.17;;;29.00;;
21905;SDS011;11117;48.644;9.006;2022-09-01T05:33:47;57.77;;;30.77;;
21905;SDS011;11117;48.644;9.006;2022-09-01T05:36:15;52.87;;;32.60;;
21905;SDS011;11117;48.644;9.006;2022-09-01T05:38:45;45.43;;;28.83;;
21905;SDS011;11117;48.644;9.006;2022-09-01T05:41:12;39.63;;;26.93;;
21905;SDS011;11117;48.644;9.006;2022-09-01T05:43:46;52.70;;;31.20;;
21905;SDS011;11117;48.644;9.006;2022-09-01T05:46:13;55.40;;;31.30;;
21905;SDS011;11117;48.644;9.006;2022-09-01T05:48:40;53.40;;;32.53;;
21905;SDS011;11117;48.644;9.006;2022-09-01T05:51:07;54.20;;;32.40;;
21905;SDS011;11117;48.644;9.006;2022-09-01T05:53:34;49.40;;;31.40;;
21905;SDS011;11117;48.644;9.006;2022-09-01T05:55:59;47.20;;;30.20;;
21905;SDS011;11117;48.644;9.006;2022-09-01T05:58:26;45.80;;;28.40;;
21905;SDS011;11117;48.644;9.006;2022-09-01T06:00:52;39.20;;;27.20;;
21905;SDS011;11117;48.644;9.006;2022-09-01T06:03:19;40.23;;;28.13;;
21905;SDS011;11117;48.644;9.006;2022-09-01T06:05:46;42.17;;;28.93;;
21905;SDS011;11117;48.644;9.006;2022-09-01T06:08:13;34.30;;;25.60;;
21905;SDS011;11117;48.644;9.006;2022-09-01T06:10:39;35.87;;;24.83;;
21905;SDS011;11117;48.644;9.006;2022-09-01T06:13:06;35.07;;;23.83;;
21905;SDS011;11117;48.644;9.006;2022-09-01T06:15:32;29.40;;;21.73;;
21905;SDS011;11117;48.644;9.006;2022-09-01T06:17:59;31.40;;;22.10;;
21905;SDS011;11117;48.644;9.006;2022-09-01T06:20:25;29.27;;;21.47;;
21905;SDS011;11117;48.644;9.006;2022-09-01T06:22:50;35.10;;;23.40;;
21905;SDS011;11117;48.644;9.006;2022-09-01T06:25:16;33.20;;;25.27;;
21905;SDS011;11117;48.644;9.006;2022-09-01T06:27:43;37.90;;;24.63;;
21905;SDS011;11117;48.644;9.006;2022-09-01T06:30:10;35.53;;;25.17;;
21905;SDS011;11117;48.644;9.006;2022-09-01T06:32:36;34.80;;;24.47;;
21905;SDS011;11117;48.644;9.006;2022-09-01T06:35:01;33.70;;;24.17;;
21905;SDS011;11117;48.644;9.006;2022-09-01T06:37:27;32.37;;;23.10;;
21905;SDS011;11117;48.644;9.006;2022-09-01T06:39:53;29.33;;;23.13;;
21905;SDS011;11117;48.644;9.006;2022-09-01T06:42:18;31.73;;;22.33;;
21905;SDS011;11117;48.644;9.006;2022-09-01T06:44:44;31.90;;;23.03;;
21905;SDS011;11117;48.644;9.006;2022-09-01T06:47:09;28.77;;;21.93;;
21905;SDS011;11117;48.644;9.006;2022-09-01T06:49:35;28.95;;;22.65;;
21905;SDS011;11117;48.644;9.006;2022-09-01T06:52:01;28.38;;;21.92;;
21905;SDS011;11117;48.644;9.006;2022-09-01T06:54:28;32.83;;;22.15;;
21905;SDS011;11117;48.644;9.006;2022-09-01T06:56:55;28.15;;;21.35;;
21905;SDS011;11117;48.644;9.006;2022-09-01T06:59:20;25.35;;;20.70;;
21905;SDS011;11117;48.644;9.006;2022-09-01T07:01:46;31.33;;;21.57;;
21905;SDS011;11117;48.644;9.006;2022-09-01T07:04:12;29.42;;;20.65;;
21905;SDS011;11117;48.644;9.006;2022-09-01T07:06:38;31.52;;;20.88;;
21905;SDS011;11117;48.644;9.006;2022-09-01T07:09:04;26.02;;;20.65;;
21905;SDS011;11117;48.644;9.006;2022-09-01T07:11:31;26.83;;;20.45;;
21905;SDS011;11117;48.644;9.006;2022-09-01T07:13:59;26.23;;;20.20;;
21905;SDS011;11117;48.644;9.006;2022-09-01T07:16:27;25.23;;;19.55;;
21905;SDS011;11117;48.644;9.006;2022-09-01T07:18:55;26.40;;;19.33;;
21905;SDS011;11117;48.644;9.006;2022-09-01T07:21:22;22.02;;;18.23;;
21905;SDS011;11117;48.644;9.006;2022-09-01T07:23:49;24.60;;;18.70;;
21905;SDS011;11117;48.644;9.006;2022-09-01T07:26:14;21.13;;;16.67;;
21905;SDS011;11117;48.644;9.006;2022-09-01T07:28:41;19.00;;;16.25;;
21905;SDS011;11117;48.644;9.006;2022-09-01T07:31:06;19.90;;;15.82;;
21905;SDS011;11117;48.644;9.006;2022-09-01T07:33:32;20.63;;;15.23;;
21905;SDS011;11117;48.644;9.006;2022-09-01T07:35:58;20.33;;;15.77;;
21905;SDS011;11117;48.644;9.006;2022-09-01T07:38:24;22.58;;;14.73;;
21905;SDS011;11117;48.644;9.006;2022-09-01T07:40:51;20.23;;;15.68;;
21905;SDS011;11117;48.644;9.006;2022-09-01T07:43:17;17.27;;;14.00;;
21905;SDS011;11117;48.644;9.006;2022-09-01T07:45:45;19.58;;;14.70;;
21905;SDS011;11117;48.644;9.006;2022-09-01T07:48:11;18.65;;;14.30;;
21905;SDS011;11117;48.644;9.006;2022-09-01T07:50:40;22.30;;;14.43;;
21905;SDS011;11117;48.644;9.006;2022-09-01T07:53:07;19.33;;;14.68;;
21905;SDS011;11117;48.644;9.006;2022-09-01T07:55:33;18.88;;;14.48;;
21905;SDS011;11117;48.644;9.006;2022-09-01T07:57:58;18.05;;;13.48;;
21905;SDS011;11117;48.644;9.006;2022-09-01T08:00:24;17.23;;;13.80;;
21905;SDS011;11117;48.644;9.006;2022-09-01T08:02:50;19.02;;;13.88;;
21905;SDS011;11117;48.644;9.006;2022-09-01T08:05:16;19.35;;;12.85;;
21905;SDS011;11117;48.644;9.006;2022-09-01T08:07:42;19.25;;;13.35;;
21905;SDS011;11117;48.644;9.006;2022-09-01T08:10:09;14.77;;;11.60;;
21905;SDS011;11117;48.644;9.006;2022-09-01T08:12:34;13.55;;;12.13;;
21905;SDS011;11117;48.644;9.006;2022-09-01T08:15:01;17.35;;;11.68;;
21905;SDS011;11117;48.644;9.006;2022-09-01T08:17:28;12.00;;;10.10;;
21905;SDS011;11117;48.644;9.006;2022-09-01T08:19:53;12.93;;;10.32;;
21905;SDS011;11117;48.644;9.006;2022-09-01T08:22:19;13.15;;;9.80;;
21905;SDS011;11117;48.644;9.006;2022-09-01T08:24:44;13.00;;;10.10;;
21905;SDS011;11117;48.644;9.006;2022-09-01T08:27:10;10.98;;;9.75;;
21905;SDS011;11117;48.644;9.006;2022-09-01T08:29:35;12.23;;;9.20;;
21905;SDS011;11117;48.644;9.006;2022-09-01T08:32:01;13.73;;;8.68;;
21905;SDS011;11117;48.644;9.006;2022-09-01T08:34:27;11.48;;;8.65;;
21905;SDS011;11117;48.644;9.006;2022-09-01T08:36:53;10.07;;;8.82;;
21905;SDS011;11117;48.644;9.006;2022-09-01T08:39:18;11.13;;;8.95;;
21905;SDS011;11117;48.644;9.006;2022-09-01T08:41:46;9.82;;;8.65;;
21905;SDS011;11117;48.644;9.006;2022-09-01T08:44:21;10.05;;;8.93;;
21905;SDS011;11117;48.644;9.006;2022-09-01T08:47:06;10.35;;;9.02;;
21905;SDS011;11117;48.644;9.006;2022-09-01T08:49:34;10.13;;;8.75;;
21905;SDS011;11117;48.644;9.006;2022-09-01T08:54:52;11.82;;;9.13;;
21905;SDS011;11117;48.644;9.006;2022-09-01T08:57:33;11.57;;;9.60;;
21905;SDS011;11117;48.644;9.006;2022-09-01T09:00:05;12.30;;;9.25;;
21905;SDS011;11117;48.644;9.006;2022-09-01T09:02:38;11.20;;;8.57;;
21905;SDS011;11117;48.644;9.006;2022-09-01T09:05:21;9.45;;;8.25;;
21905;SDS011;11117;48.644;9.006;2022-09-01T09:14:01;11.15;;;8.07;;
21905;SDS011;11117;48.644;9.006;2022-09-01T09:16:49;11.63;;;8.48;;
21905;SDS011;11117;48.644;9.006;2022-09-01T09:21:51;13.90;;;7.60;;
21905;SDS011;11117;48.644;9.006;2022-09-01T09:27:27;13.30;;;8.23;;
21905;SDS011;11117;48.644;9.006;2022-09-01T09:30:08;8.65;;;7.60;;
21905;SDS011;11117;48.644;9.006;2022-09-01T09:32:44;11.15;;;7.93;;
21905;SDS011;11117;48.644;9.006;2022-09-01T09:37:53;8.63;;;7.10;;
21905;SDS011;11117;48.644;9.006;2022-09-01T09:40:20;7.75;;;6.97;;
21905;SDS011;11117;48.644;9.006;2022-09-01T09:47:52;7.75;;;6.40;;
21905;SDS011;11117;48.644;9.006;2022-09-01T09:50:29;8.20;;;6.10;;
21905;SDS011;11117;48.644;9.006;2022-09-01T09:53:13;8.18;;;5.35;;
21905;SDS011;11117;48.644;9.006;2022-09-01T09:58:36;6.72;;;5.72;;
21905;SDS011;11117;48.644;9.006;2022-09-01T10:01:13;7.18;;;5.63;;
21905;SDS011;11117;48.644;9.006;2022-09-01T10:03:48;10.10;;;6.13;;
21905;SDS011;11117;48.644;9.006;2022-09-01T10:06:37;8.38;;;5.20;;
21905;SDS011;11117;48.644;9.006;2022-09-01T10:09:06;6.93;;;5.07;;
21905;SDS011;11117;48.644;9.006;2022-09-01T10:11:40;6.60;;;4.25;;
21905;SDS011;11117;48.644;9.006;2022-09-01T10:14:16;5.88;;;4.22;;
21905;SDS011;11117;48.644;9.006;2022-09-01T10:16:46;6.35;;;4.90;;
21905;SDS011;11117;48.644;9.006;2022-09-01T10:19:18;7.53;;;5.25;;
21905;SDS011;11117;48.644;9.006;2022-09-01T10:21:45;6.05;;;5.13;;
21905;SDS011;11117;48.644;9.006;2022-09-01T10:24:15;7.18;;;4.97;;
21905;SDS011;11117;48.644;9.006;2022-09-01T10:26:54;5.32;;;4.60;;
21905;SDS011;11117;48.644;9.006;2022-09-01T10:29:45;9.88;;;4.82;;
21905;SDS011;11117;48.644;9.006;2022-09-01T10:32:25;5.10;;;4.55;;
21905;SDS011;11117;48.644;9.006;2022-09-01T10:34:55;4.90;;;4.40;;
21905;SDS011;11117;48.644;9.006;2022-09-01T10:37:21;6.63;;;5.05;;
21905;SDS011;11117;48.644;9.006;2022-09-01T10:40:08;5.68;;;4.40;;
21905;SDS011;11117;48.644;9.006;2022-09-01T10:42:45;5.03;;;4.28;;
21905;SDS011;11117;48.644;9.006;2022-09-01T10:45:19;5.72;;;4.65;;
21905;SDS011;11117;48.644;9.006;2022-09-01T10:50:45;4.80;;;4.30;;
21905;SDS011;11117;48.644;9.006;2022-09-01T10:59:09;6.85;;;4.35;;
21905;SDS011;11117;48.644;9.006;2022-09-01T11:04:17;4.43;;;4.03;;
21905;SDS011;11117;48.644;9.006;2022-09-01T11:06:53;4.63;;;4.05;;
21905;SDS011;11117;48.644;9.006;2022-09-01T11:14:47;4.05;;;3.65;;
21905;SDS011;11117;48.644;9.006;2022-09-01T11:17:16;5.68;;;3.65;;
21905;SDS011;11117;48.644;9.006;2022-09-01T11:19:58;3.95;;;3.42;;
21905;SDS011;11117;48.644;9.006;2022-09-01T11:22:33;4.47;;;3.60;;
21905;SDS011;11117;48.644;9.006;2022-09-01T11:30:44;6.95;;;3.38;;
21905;SDS011;11117;48.644;9.006;2022-09-01T11:36:26;5.47;;;3.00;;
21905;SDS011;11117;48.644;9.006;2022-09-01T11:39:02;3.40;;;3.10;;
21905;SDS011;11117;48.644;9.006;2022-09-01T11:44:00;3.58;;;3.05;;
21905;SDS011;11117;48.644;9.006;2022-09-01T11:46:35;2.97;;;2.55;;
21905;SDS011;11117;48.644;9.006;2022-09-01T11:49:06;4.22;;;2.90;;
21905;SDS011;11117;48.644;9.006;2022-09-01T11:51:46;4.97;;;2.85;;
21905;SDS011;11117;48.644;9.006;2022-09-01T11:54:12;3.28;;;2.90;;
21905;SDS011;11117;48.644;9.006;2022-09-01T11:56:39;2.90;;;2.65;;
21905;SDS011;11117;48.644;9.006;2022-09-01T11:59:04;2.92;;;2.63;;
21905;SDS011;11117;48.644;9.006;2022-09-01T12:01:34;3.20;;;2.60;;
21905;SDS011;11117;48.644;9.006;2022-09-01T12:04:17;4.10;;;2.60;;
21905;SDS011;11117;48.644;9.006;2022-09-01T12:06:50;3.17;;;2.35;;
21905;SDS011;11117;48.644;9.006;2022-09-01T12:09:19;2.67;;;2.40;;
21905;SDS011;11117;48.644;9.006;2022-09-01T12:11:44;2.40;;;2.20;;
21905;SDS011;11117;48.644;9.006;2022-09-01T12:14:11;2.30;;;2.10;;
21905;SDS011;11117;48.644;9.006;2022-09-01T12:16:47;2.42;;;2.22;;
21905;SDS011;11117;48.644;9.006;2022-09-01T12:19:25;3.42;;;3.10;;
21905;SDS011;11117;48.644;9.006;2022-09-01T12:22:12;2.85;;;2.25;;
21905;SDS011;11117;48.644;9.006;2022-09-01T12:24:43;2.70;;;2.30;;
21905;SDS011;11117;48.644;9.006;2022-09-01T12:27:10;3.40;;;2.38;;
21905;SDS011;11117;48.644;9.006;2022-09-01T12:29:36;3.42;;;2.55;;
21905;SDS011;11117;48.644;9.006;2022-09-01T12:32:02;4.35;;;2.75;;
21905;SDS011;11117;48.644;9.006;2022-09-01T12:37:05;2.47;;;2.00;;
21905;SDS011;11117;48.644;9.006;2022-09-01T12:39:42;3.90;;;2.40;;
21905;SDS011;11117;48.644;9.006;2022-09-01T12:44:53;2.13;;;1.92;;
21905;SDS011;11117;48.644;9.006;2022-09-01T12:50:43;5.45;;;2.50;;
21905;SDS011;11117;48.644;9.006;2022-09-01T12:52:50;2.65;;;2.45;;
21905;SDS011;11117;48.644;9.006;2022-09-01T12:55:25;2.60;;;2.35;;
21905;SDS011;11117;48.644;9.006;2022-09-01T12:57:55;2.78;;;2.50;;
21905;SDS011;11117;48.644;9.006;2022-09-01T13:00:26;5.40;;;2.67;;
21905;SDS011;11117;48.644;9.006;2022-09-01T13:03:13;4.63;;;2.72;;
21905;SDS011;11117;48.644;9.006;2022-09-01T13:05:41;3.20;;;2.90;;
21905;SDS011;11117;48.644;9.006;2022-09-01T13:08:10;3.67;;;2.90;;
21905;SDS011;11117;48.644;9.006;2022-09-01T13:10:45;2.85;;;2.55;;
21905;SDS011;11117;48.644;9.006;2022-09-01T13:13:16;3.00;;;2.80;;
21905;SDS011;11117;48.644;9.006;2022-09-01T13:15:46;4.93;;;3.20;;
21905;SDS011;11117;48.644;9.006;2022-09-01T13:18:14;2.67;;;2.47;;
21905;SDS011;11117;48.644;9.006;2022-09-01T13:20:40;7.13;;;2.45;;
21905;SDS011;11117;48.644;9.006;2022-09-01T13:23:06;2.67;;;2.47;;
21905;SDS011;11117;48.644;9.006;2022-09-01T13:25:34;5.10;;;2.72;;
21905;SDS011;11117;48.644;9.006;2022-09-01T13:27:59;2.50;;;2.30;;
21905;SDS011;11117;48.644;9.006;2022-09-01T13:30:25;4.93;;;2.40;;
21905;SDS011;11117;48.644;9.006;2022-09-01T13:32:51;2.30;;;2.10;;
21905;SDS011;11117;48.644;9.006;2022-09-01T13:35:18;2.55;;;2.35;;
21905;SDS011;11117;48.644;9.006;2022-09-01T13:37:45;2.30;;;2.10;;
21905;SDS011;11117;48.644;9.006;2022-09-01T13:40:11;2.38;;;2.10;;
21905;SDS011;11117;48.644;9.006;2022-09-01T13:42:37;3.28;;;2.10;;
21905;SDS011;11117;48.644;9.006;2022-09-01T13:45:02;1.80;;;1.70;;
21905;SDS011;11117;48.644;9.006;2022-09-01T13:47:28;2.55;;;2.10;;
21905;SDS011;11117;48.644;9.006;2022-09-01T13:49:54;3.47;;;3.17;;
21905;SDS011;11117;48.644;9.006;2022-09-01T13:52:19;3.25;;;2.75;;
21905;SDS011;11117;48.644;9.006;2022-09-01T13:54:45;4.28;;;2.97;;
21905;SDS011;11117;48.644;9.006;2022-09-01T13:57:10;3.55;;;3.25;;
21905;SDS011;11117;48.644;9.006;2022-09-01T13:59:36;3.88;;;3.15;;
21905;SDS011;11117;48.644;9.006;2022-09-01T14:02:02;7.45;;;3.17;;
21905;SDS011;11117;48.644;9.006;2022-09-01T14:04:29;3.78;;;3.35;;
21905;SDS011;11117;48.644;9.006;2022-09-01T14:06:54;4.25;;;3.53;;
21905;SDS011;11117;48.644;9.006;2022-09-01T14:09:21;3.40;;;3.10;;
21905;SDS011;11117;48.644;9.006;2022-09-01T14:11:47;6.50;;;3.63;;
21905;SDS011;11117;48.644;9.006;2022-09-01T14:14:12;4.00;;;3.60;;
21905;SDS011;11117;48.644;9.006;2022-09-01T14:16:38;4.03;;;3.72;;
21905;SDS011;11117;48.644;9.006;2022-09-01T14:19:04;4.40;;;3.40;;
21905;SDS011;11117;48.644;9.006;2022-09-01T14:21:29;4.30;;;3.38;;
21905;SDS011;11117;48.644;9.006;2022-09-01T14:23:55;3.60;;;3.30;;
21905;SDS011;11117;48.644;9.006;2022-09-01T14:26:20;4.15;;;3.42;;
21905;SDS011;11117;48.644;9.006;2022-09-01T14:28:46;3.72;;;3.42;;
21905;SDS011;11117;48.644;9.006;2022-09-01T14:31:12;5.20;;;3.65;;
21905;SDS011;11117;48.644;9.006;2022-09-01T14:33:41;3.15;;;2.85;;
21905;SDS011;11117;48.644;9.006;2022-09-01T14:36:07;3.35;;;3.05;;
21905;SDS011;11117;48.644;9.006;2022-09-01T14:38:39;5.70;;;3.70;;
21905;SDS011;11117;48.644;9.006;2022-09-01T14:41:05;5.95;;;3.38;;
21905;SDS011;11117;48.644;9.006;2022-09-01T14:43:31;5.30;;;3.03;;
21905;SDS011;11117;48.644;9.006;2022-09-01T14:46:03;3.63;;;3.30;;
21905;SDS011;11117;48.644;9.006;2022-09-01T14:48:30;5.28;;;3.50;;
21905;SDS011;11117;48.644;9.006;2022-09-01T14:50:56;3.67;;;3.38;;
21905;SDS011;11117;48.644;9.006;2022-09-01T14:53:22;4.70;;;3.38;;
21905;SDS011;11117;48.644;9.006;2022-09-01T14:55:47;3.97;;;2.95;;
21905;SDS011;11117;48.644;9.006;2022-09-01T14:58:13;5.97;;;3.25;;
21905;SDS011;11117;48.644;9.006;2022-09-01T15:00:39;3.78;;;3.30;;
21905;SDS011;11117;48.644;9.006;2022-09-01T15:03:04;3.50;;;3.20;;
21905;SDS011;11117;48.644;9.006;2022-09-01T15:05:30;5.57;;;3.20;;
21905;SDS011;11117;48.644;9.006;2022-09-01T15:07:55;4.10;;;3.50;;
21905;SDS011;11117;48.644;9.006;2022-09-01T15:10:22;4.30;;;3.83;;
21905;SDS011;11117;48.644;9.006;2022-09-01T15:12:49;3.65;;;3.30;;
21905;SDS011;11117;48.644;9.006;2022-09-01T15:15:14;3.95;;;3.53;;
21905;SDS011;11117;48.644;9.006;2022-09-01T15:17:41;5.45;;;3.50;;
21905;SDS011;11117;48.644;9.006;2022-09-01T15:20:06;3.78;;;3.33;;
21905;SDS011;11117;48.644;9.006;2022-09-01T15:22:32;3.75;;;3.38;;
21905;SDS011;11117;48.644;9.006;2022-09-01T15:24:58;4.65;;;3.40;;
21905;SDS011;11117;48.644;9.006;2022-09-01T15:27:23;7.03;;;3.20;;
21905;SDS011;11117;48.644;9.006;2022-09-01T15:29:49;4.82;;;3.25;;
21905;SDS011;11117;48.644;9.006;2022-09-01T15:32:14;3.50;;;3.03;;
21905;SDS011;11117;48.644;9.006;2022-09-01T15:34:40;4.15;;;2.50;;
21905;SDS011;11117;48.644;9.006;2022-09-01T15:37:05;4.30;;;2.80;;